EHQE

Hoorn-a Sea

Hoorn-a Sea, The Netherlands
METAR EHQE 181455Z AUTO 28031KT 9999 FEW009 SCT021 BKN028 06/01 Q0998 W///H///
Observed Flight Rules
Jan-18 @ 14:55 UTC (44 minutes ago) Marginal Visual Flight Rules
Wind Visibility Clouds
280° at 31 knots 10,000+ meters
  • Few at 900' AGL
  • Scattered at 2,100' AGL
  • Broken at 2,800' AGL
Temperatures Readings
Current 6°C / 43°F
Dewpoint 1°C / 34°F
Humidity 71%
Altimeter 29.47" Hg
Pressure 998 hPa
Elevation 50
METAR EHQE 181455Z AUTO 28031KT 9999 FEW009 SCT021 BKN028 06/01 Q0998 W///H///
Observed Flight Rules
Jan-18 @ 14:55 UTC
(44 minutes ago)
MVFR
Wind Visibility
280° at 31 knots 10,000+ meters
Clouds
  • Few at 900' AGL
  • Scattered at 2,100' AGL
  • Broken at 2,800' AGL
Temperature Dewpoint
6°C / 43°F 1°C / 34°F
Humidity Altimeter Pressure
71% 29.47" Hg 998 hPa